Time;durP1;ratioP1;P1;durP2;ratioP2;P2;SDS_P1;SDS_P2;PMS_P1;PMS_P2;Temp;Humidity;BMP_temperature;BMP_pressure;BME280_temperature;BME280_humidity;BME280_pressure;Samples;Min_cycle;Max_cycle;Signal;HPM_P1;HPM_P2
2022/09/02 00:01:49;;;;;;;3.07;2.40;;;17.20;1.00;;;;;;5034810;28;20507;-78
2022/09/02 00:04:43;;;;;;;2.43;2.20;;;17.10;1.00;;;;;;5035239;28;20362;-78
2022/09/02 00:07:23;;;;;;;2.20;2.00;;;17.00;1.00;;;;;;5034568;28;20928;-77
2022/09/02 00:09:49;;;;;;;2.93;2.00;;;16.90;1.00;;;;;;5035148;28;20868;-78
2022/09/02 00:12:19;;;;;;;2.63;2.40;;;16.70;1.00;;;;;;5033019;28;20471;-74
2022/09/02 00:14:45;;;;;;;5.13;2.80;;;16.70;1.00;;;;;;5035173;28;20541;-74
2022/09/02 00:17:10;;;;;;;2.10;2.00;;;16.70;1.00;;;;;;5034325;28;20436;-74
2022/09/02 00:19:37;;;;;;;5.00;2.40;;;16.60;1.00;;;;;;5034884;28;20176;-73
2022/09/02 00:22:03;;;;;;;2.40;2.20;;;16.60;1.00;;;;;;5034105;28;20186;-74
2022/09/02 00:24:29;;;;;;;5.50;2.33;;;16.50;1.00;;;;;;5033633;28;20440;-74
2022/09/02 00:27:25;;;;;;;2.30;2.10;;;16.50;1.00;;;;;;5035048;28;20411;-78
2022/09/02 00:30:37;;;;;;;2.43;2.23;;;16.40;1.00;;;;;;5048858;28;20789;-78
2022/09/02 00:33:31;;;;;;;3.80;2.50;;;16.40;1.00;;;;;;5034960;28;20458;-78
2022/09/02 00:36:37;;;;;;;3.17;2.57;;;16.30;1.00;;;;;;5034598;28;20895;-78
2022/09/02 00:39:25;;;;;;;4.33;2.43;;;16.20;1.00;;;;;;5044932;28;20426;-78
2022/09/02 00:45:13;;;;;;;6.63;2.50;;;16.20;1.00;;;;;;5034212;28;20444;-78
2022/09/02 00:48:31;;;;;;;9.83;3.03;;;16.20;1.00;;;;;;5034213;28;20402;-79
2022/09/02 00:51:31;;;;;;;6.30;2.90;;;16.20;1.00;;;;;;5039727;28;20937;-78
2022/09/02 00:57:30;;;;;;;2.57;2.37;;;16.20;1.00;;;;;;5032720;28;20426;-73
2022/09/02 01:00:16;;;;;;;8.73;2.43;;;16.20;1.00;;;;;;5034670;28;20438;-74
2022/09/02 01:02:48;;;;;;;6.40;2.67;;;16.30;1.00;;;;;;5024979;28;20425;-74
2022/09/02 01:05:17;;;;;;;3.60;2.10;;;16.30;1.00;;;;;;5035398;28;20414;-74
2022/09/02 01:07:44;;;;;;;2.67;2.47;;;16.30;1.00;;;;;;5041066;28;20458;-74
2022/09/02 01:10:14;;;;;;;9.43;2.70;;;16.30;1.00;;;;;;5038992;28;20448;-74
2022/09/02 01:16:40;;;;;;;7.67;2.83;;;16.20;1.00;;;;;;5033869;28;20406;-78
2022/09/02 01:19:46;;;;;;;4.60;2.70;;;16.10;1.00;;;;;;4992092;28;20436;-78
2022/09/02 01:22:38;;;;;;;10.87;2.43;;;16.10;1.00;;;;;;4991485;28;20481;-78
2022/09/02 01:25:27;;;;;;;2.80;2.50;;;16.00;1.00;;;;;;4976076;28;20409;-78
2022/09/02 01:31:14;;;;;;;4.17;3.00;;;16.00;1.00;;;;;;5000445;28;20516;-78
2022/09/02 01:33:40;;;;;;;4.10;2.17;;;15.90;1.00;;;;;;4991457;28;20554;-78
2022/09/02 01:36:32;;;;;;;8.67;3.00;;;15.90;1.00;;;;;;4993417;28;20658;-78
2022/09/02 01:42:20;;;;;;;5.50;3.07;;;15.80;1.00;;;;;;4990938;28;20398;-77
2022/09/02 01:45:02;;;;;;;2.83;2.60;;;15.80;1.00;;;;;;4993394;28;20936;-78
2022/09/02 01:50:56;;;;;;;10.20;2.60;;;15.70;1.00;;;;;;5000476;28;20924;-78
2022/09/02 01:53:55;;;;;;;3.17;2.80;;;15.70;1.00;;;;;;4991691;28;20797;-78
2022/09/02 01:56:21;;;;;;;3.00;2.50;;;15.70;1.00;;;;;;5026225;28;20406;-75
2022/09/02 01:58:49;;;;;;;12.93;2.47;;;15.50;1.00;;;;;;5031502;28;20423;-74
2022/09/02 02:01:15;;;;;;;3.13;2.27;;;15.60;1.00;;;;;;5034622;28;20245;-74
2022/09/02 02:03:40;;;;;;;3.97;2.70;;;15.60;1.00;;;;;;5039052;28;20902;-74
2022/09/02 02:06:15;;;;;;;6.23;2.80;;;15.50;1.00;;;;;;5036726;28;20196;-74
2022/09/02 02:08:42;;;;;;;3.20;2.17;;;15.50;1.00;;;;;;5051024;28;20628;-74
2022/09/02 02:11:09;;;;;;;2.30;2.10;;;15.60;1.00;;;;;;5036882;28;20401;-74
2022/09/02 02:13:37;;;;;;;3.13;1.83;;;15.60;1.00;;;;;;5037128;28;20465;-78
2022/09/02 02:19:25;;;;;;;2.43;2.20;;;15.60;1.00;;;;;;5043871;28;20432;-78
2022/09/02 02:22:02;;;;;;;2.10;1.90;;;15.60;1.00;;;;;;5036772;28;20434;-78
2022/09/02 02:24:28;;;;;;;3.63;2.13;;;15.60;1.00;;;;;;5037055;28;20207;-77
2022/09/02 02:27:25;;;;;;;2.40;2.20;;;15.60;1.00;;;;;;5037036;28;20917;-78
2022/09/02 02:36:35;;;;;;;3.23;2.00;;;15.40;1.00;;;;;;5036676;28;20494;-78
2022/09/02 02:39:03;;;;;;;4.97;2.27;;;15.40;1.00;;;;;;5038026;28;20432;-78
2022/09/02 02:41:55;;;;;;;6.83;2.20;;;15.40;1.00;;;;;;5037733;28;20430;-78
2022/09/02 02:44:21;;;;;;;2.40;2.20;;;15.30;1.00;;;;;;5036422;28;20522;-74
2022/09/02 02:46:56;;;;;;;2.20;2.00;;;15.30;1.00;;;;;;5027724;28;20496;-74
2022/09/02 02:49:22;;;;;;;2.40;2.20;;;15.30;1.00;;;;;;5042518;28;20186;-73
2022/09/02 02:51:49;;;;;;;4.13;2.13;;;15.30;1.00;;;;;;5040347;28;20378;-74
2022/09/02 02:54:15;;;;;;;3.20;2.43;;;15.20;1.00;;;;;;5026424;28;20462;-74
2022/09/02 02:57:25;;;;;;;2.70;2.50;;;15.30;1.00;;;;;;5039289;28;20392;-77
2022/09/02 03:00:13;;;;;;;2.30;2.10;;;15.30;1.00;;;;;;5033116;28;20179;-79
2022/09/02 03:03:07;;;;;;;3.87;2.50;;;15.30;1.00;;;;;;5038638;28;20565;-78
2022/09/02 03:05:36;;;;;;;2.40;2.10;;;15.30;1.00;;;;;;5044414;28;20414;-78
2022/09/02 03:11:49;;;;;;;2.30;2.10;;;15.40;1.00;;;;;;5035411;28;20396;-78
2022/09/02 03:14:16;;;;;;;6.47;2.20;;;15.40;1.00;;;;;;5037067;28;20429;-74
2022/09/02 03:16:42;;;;;;;3.30;1.87;;;15.40;1.00;;;;;;5033182;28;20431;-74
2022/09/02 03:19:13;;;;;;;2.30;2.10;;;15.40;1.00;;;;;;5035907;28;20964;-74
2022/09/02 03:21:40;;;;;;;2.60;2.40;;;15.50;1.00;;;;;;5035531;28;20426;-74
2022/09/02 03:24:07;;;;;;;3.67;2.23;;;15.60;1.00;;;;;;5035467;28;20810;-74
2022/09/02 03:26:32;;;;;;;2.40;2.13;;;15.60;1.00;;;;;;5032077;28;20492;-74
2022/09/02 03:29:19;;;;;;;3.43;1.90;;;15.60;1.00;;;;;;5036421;28;20442;-78
2022/09/02 03:31:45;;;;;;;3.40;2.03;;;15.60;1.00;;;;;;5043770;28;20176;-78
2022/09/02 03:37:33;;;;;;;9.17;2.17;;;15.70;1.00;;;;;;5043896;28;20207;-78
2022/09/02 03:43:37;;;;;;;2.77;2.03;;;15.70;1.00;;;;;;5035551;28;20468;-78
2022/09/02 03:49:26;;;;;;;3.97;1.77;;;15.60;1.00;;;;;;5033852;28;20406;-78
2022/09/02 03:52:25;;;;;;;2.60;1.97;;;15.60;1.00;;;;;;5025334;28;20420;-78
2022/09/02 03:55:08;;;;;;;2.17;1.97;;;15.50;1.00;;;;;;5047742;28;20738;-78
2022/09/02 03:57:35;;;;;;;9.10;2.30;;;15.40;1.00;;;;;;5033983;28;20426;-74
2022/09/02 04:00:04;;;;;;;8.50;2.43;;;15.30;1.00;;;;;;5022052;28;20381;-74
2022/09/02 04:02:30;;;;;;;4.87;2.00;;;15.30;1.00;;;;;;5030949;28;20414;-74
2022/09/02 04:05:08;;;;;;;4.93;2.00;;;15.20;1.00;;;;;;5015730;28;20417;-74
2022/09/02 04:07:34;;;;;;;5.50;2.17;;;15.10;1.00;;;;;;5033387;28;20196;-74
2022/09/02 04:10:00;;;;;;;2.23;2.00;;;15.00;1.00;;;;;;5035093;28;20446;-74
2022/09/02 04:12:50;;;;;;;2.70;2.10;;;14.90;1.00;;;;;;5027744;28;20160;-77
2022/09/02 04:15:20;;;;;;;11.17;2.67;;;14.90;1.00;;;;;;5034936;28;20423;-79
2022/09/02 04:21:07;;;;;;;6.40;2.10;;;14.80;1.00;;;;;;5025536;28;20489;-78
2022/09/02 04:24:19;;;;;;;4.13;2.03;;;14.70;1.00;;;;;;5028483;28;20493;-78
2022/09/02 04:26:49;;;;;;;2.53;2.30;;;14.70;1.00;;;;;;5025437;28;20181;-78
2022/09/02 04:33:25;;;;;;;4.80;2.30;;;14.70;1.00;;;;;;5027749;28;20429;-78
2022/09/02 04:39:12;;;;;;;5.07;2.30;;;14.70;1.00;;;;;;5037649;28;20728;-77
2022/09/02 04:42:01;;;;;;;6.50;2.00;;;14.80;1.00;;;;;;5033758;28;20415;-77
2022/09/02 04:44:45;;;;;;;7.17;2.50;;;14.80;1.00;;;;;;5034213;28;20173;-79
2022/09/02 04:50:35;;;;;;;4.10;2.67;;;14.90;1.00;;;;;;5047266;28;20470;-77
2022/09/02 04:53:19;;;;;;;7.97;2.37;;;15.00;1.00;;;;;;5034186;28;20958;-77
2022/09/02 04:55:55;;;;;;;4.37;2.60;;;15.00;1.00;;;;;;5033641;28;20397;-77
2022/09/02 04:59:01;;;;;;;17.03;2.43;;;15.10;1.00;;;;;;5041789;28;20397;-77
2022/09/02 05:01:55;;;;;;;8.87;2.47;;;15.20;1.00;;;;;;5054020;28;20406;-77
2022/09/02 05:04:21;;;;;;;14.80;2.53;;;15.30;1.00;;;;;;5046547;28;20472;-77
2022/09/02 05:07:23;;;;;;;11.20;2.20;;;15.40;1.00;;;;;;5022461;28;20388;-77
2022/09/02 05:09:50;;;;;;;3.40;2.10;;;15.50;1.00;;;;;;5033505;28;20427;-77
2022/09/02 05:12:17;;;;;;;5.27;2.60;;;15.60;1.00;;;;;;5042095;28;20920;-77
2022/09/02 05:14:43;;;;;;;4.17;2.40;;;15.60;1.00;;;;;;5035870;28;20762;-77
2022/09/02 05:17:26;;;;;;;7.63;2.47;;;15.70;1.00;;;;;;5038512;28;20410;-77
2022/09/02 05:20:19;;;;;;;6.53;2.10;;;15.80;1.00;;;;;;5031193;28;20510;-77
2022/09/02 05:22:46;;;;;;;13.93;2.60;;;16.00;1.00;;;;;;5022916;28;20478;-77
2022/09/02 05:25:43;;;;;;;2.50;1.90;;;16.10;1.00;;;;;;5041979;28;20882;-77
2022/09/02 05:28:12;;;;;;;17.57;2.20;;;16.20;1.00;;;;;;5048003;28;20890;-77
2022/09/02 05:31:04;;;;;;;4.60;2.10;;;16.20;1.00;;;;;;5033590;28;20433;-77
2022/09/02 05:34:07;;;;;;;5.30;2.30;;;16.40;1.00;;;;;;5034900;28;20429;-77
2022/09/02 05:37:25;;;;;;;3.33;2.00;;;16.50;1.00;;;;;;5024172;28;20743;-77
2022/09/02 05:39:55;;;;;;;7.10;2.47;;;16.60;1.00;;;;;;5031916;28;20402;-77
2022/09/02 05:42:25;;;;;;;3.97;2.30;;;16.80;1.00;;;;;;5035586;28;20423;-78
2022/09/02 05:44:51;;;;;;;3.80;2.30;;;16.80;1.00;;;;;;5032485;28;20443;-78
2022/09/02 05:47:43;;;;;;;4.50;2.27;;;16.90;1.00;;;;;;5032760;28;20455;-77
2022/09/02 05:50:49;;;;;;;7.50;2.20;;;17.10;1.00;;;;;;5027734;28;20945;-77
2022/09/02 05:56:37;;;;;;;12.07;3.83;;;17.30;1.00;;;;;;5022700;28;20448;-78
2022/09/02 06:03:13;;;;;;;12.27;3.80;;;17.60;1.00;;;;;;5041031;28;20405;-78
2022/09/02 06:05:57;;;;;;;8.20;2.67;;;17.70;1.00;;;;;;5033164;28;20477;-79
2022/09/02 06:08:38;;;;;;;1.87;1.67;;;17.90;1.00;;;;;;5046760;28;20523;-78
2022/09/02 06:14:38;;;;;;;4.73;1.50;;;18.20;1.00;;;;;;5031794;28;20464;-78
2022/09/02 06:20:27;;;;;;;9.13;1.77;;;18.50;1.00;;;;;;5031194;28;21175;-78
2022/09/02 06:22:55;;;;;;;4.80;1.50;;;18.70;1.00;;;;;;5042692;28;20429;-78
2022/09/02 06:29:02;;;;;;;3.47;2.13;;;18.80;1.00;;;;;;5031178;28;20505;-78
2022/09/02 06:31:32;;;;;;;5.03;2.07;;;18.90;1.00;;;;;;5032485;28;20383;-77
2022/09/02 06:34:43;;;;;;;8.33;2.70;;;19.00;1.00;;;;;;5039625;28;20945;-78
2022/09/02 06:37:43;;;;;;;8.43;1.80;;;19.10;1.00;;;;;;5013668;28;20820;-77
2022/09/02 06:40:25;;;;;;;2.27;1.57;;;19.20;1.00;;;;;;5040993;28;20580;-77
2022/09/02 06:43:02;;;;;;;6.30;2.10;;;19.40;1.00;;;;;;5031925;28;20483;-78
2022/09/02 06:45:44;;;;;;;2.23;1.53;;;19.40;1.00;;;;;;5014007;28;20959;-87
2022/09/02 06:48:55;;;;;;;3.33;1.80;;;19.60;1.00;;;;;;5029739;28;20443;-78
2022/09/02 06:51:45;;;;;;;3.40;1.67;;;19.70;1.00;;;;;;5035734;28;20440;-78
2022/09/02 07:01:01;;;;;;;2.40;1.80;;;20.10;1.00;;;;;;5040073;28;20469;-78
2022/09/02 07:06:55;;;;;;;1.87;1.77;;;20.30;1.00;;;;;;5038303;28;20429;-78
2022/09/02 07:09:32;;;;;;;2.37;2.00;;;20.40;1.00;;;;;;5039933;28;20445;-76
2022/09/02 07:15:43;;;;;;;2.63;1.77;;;20.20;1.00;;;;;;5035642;28;20499;-78
2022/09/02 07:18:43;;;;;;;1.93;1.80;;;20.20;1.00;;;;;;5030606;28;20419;-81
2022/09/02 07:24:49;;;;;;;3.20;2.07;;;20.10;1.00;;;;;;5044306;28;20436;-78
2022/09/02 07:27:44;;;;;;;6.53;2.00;;;20.10;1.00;;;;;;5041814;28;20916;-79
2022/09/02 07:31:01;;;;;;;6.30;1.83;;;20.10;1.00;;;;;;5029722;28;20442;-82
2022/09/02 07:37:43;;;;;;;3.60;2.07;;;20.20;1.00;;;;;;5016183;28;20360;-82
2022/09/02 07:40:14;;;;;;;8.13;1.73;;;20.20;1.00;;;;;;5031410;28;20458;-83
2022/09/02 07:46:01;;;;;;;2.20;1.83;;;20.30;1.00;;;;;;5035370;28;20422;-77
2022/09/02 07:48:37;;;;;;;5.67;2.00;;;20.40;1.00;;;;;;5041601;28;20438;-77
2022/09/02 07:58:31;;;;;;;4.60;1.70;;;20.70;1.00;;;;;;5031983;28;20481;-77
2022/09/02 08:04:37;;;;;;;1.60;1.50;;;21.00;1.00;;;;;;5029929;28;20413;-78
2022/09/02 08:07:23;;;;;;;2.00;1.70;;;21.10;1.00;;;;;;5054672;28;20396;-78
2022/09/02 08:09:50;;;;;;;7.20;1.93;;;21.30;1.00;;;;;;5034548;28;20516;-77
2022/09/02 08:12:19;;;;;;;7.93;1.60;;;21.40;1.00;;;;;;5024786;28;20446;-77
2022/09/02 08:14:45;;;;;;;4.73;1.73;;;21.40;1.00;;;;;;5044036;28;20448;-77
2022/09/02 08:17:55;;;;;;;1.67;1.57;;;21.30;1.00;;;;;;5034894;28;20419;-77
2022/09/02 08:23:42;;;;;;;4.67;1.70;;;21.50;1.00;;;;;;5035096;28;20496;-77
2022/09/02 08:26:30;;;;;;;1.53;1.43;;;21.60;1.00;;;;;;5034825;28;20476;-77
2022/09/02 08:28:55;;;;;;;1.63;1.53;;;21.80;1.00;;;;;;5042056;28;20232;-78
2022/09/02 08:34:42;;;;;;;3.17;1.53;;;22.00;1.00;;;;;;5040187;28;20265;-77
2022/09/02 08:37:30;;;;;;;3.53;1.30;;;22.20;1.00;;;;;;5042899;28;20831;-77
2022/09/02 08:43:40;;;;;;;3.07;1.47;;;22.30;1.00;;;;;;5038439;28;20911;-77
2022/09/02 08:46:16;;;;;;;8.17;1.63;;;22.40;1.00;;;;;;5029032;28;20429;-78
2022/09/02 08:49:03;;;;;;;3.90;1.57;;;22.40;1.00;;;;;;5035091;28;20416;-78
2022/09/02 08:51:47;;;;;;;2.90;1.47;;;22.50;1.00;;;;;;5023467;28;20415;-80
2022/09/02 08:54:55;;;;;;;1.47;1.37;;;22.60;1.00;;;;;;5033183;28;20454;-79
2022/09/02 08:57:56;;;;;;;6.50;1.30;;;22.70;1.00;;;;;;5035205;28;20422;-87
2022/09/02 09:01:04;;;;;;;1.83;1.53;;;22.80;1.00;;;;;;5035714;28;20431;-78
2022/09/02 09:07:32;;;;;;;3.00;1.60;;;22.90;1.00;;;;;;5025321;28;20382;-78
2022/09/02 09:10:31;;;;;;;5.40;1.43;;;23.00;1.00;;;;;;5032744;28;20434;-78
2022/09/02 09:13:17;;;;;;;2.87;1.50;;;23.10;1.00;;;;;;5032584;28;20535;-78
2022/09/02 09:15:46;;;;;;;1.80;1.70;;;23.20;1.00;;;;;;5032878;28;20472;-78
2022/09/02 09:18:17;;;;;;;3.70;1.50;;;23.30;1.00;;;;;;5033324;28;20415;-77
2022/09/02 09:20:43;;;;;;;1.57;1.47;;;23.40;1.00;;;;;;5032735;28;20412;-77
2022/09/02 09:23:29;;;;;;;8.33;1.63;;;23.60;1.00;;;;;;5032735;28;20814;-77
2022/09/02 09:26:05;;;;;;;3.00;1.40;;;23.70;1.00;;;;;;5032633;28;20412;-78
2022/09/02 09:28:30;;;;;;;4.83;1.20;;;23.80;1.00;;;;;;5032355;28;20512;-78
2022/09/02 09:30:59;;;;;;;2.50;1.20;;;24.00;1.00;;;;;;5048944;28;21097;-78
2022/09/02 09:33:25;;;;;;;8.53;1.40;;;24.00;1.00;;;;;;5041188;28;20304;-77
2022/09/02 09:35:55;;;;;;;2.20;1.30;;;24.00;1.00;;;;;;5035387;28;20939;-77
2022/09/02 09:38:30;;;;;;;2.90;1.10;;;24.10;1.00;;;;;;5041825;28;20218;-78
2022/09/02 09:41:19;;;;;;;1.30;1.20;;;24.10;1.00;;;;;;5046742;28;20413;-78
2022/09/02 09:43:45;;;;;;;3.13;1.50;;;24.10;1.00;;;;;;5042178;28;20976;-78
2022/09/02 09:46:28;;;;;;;1.57;1.00;;;24.20;1.00;;;;;;5025366;28;20490;-78
2022/09/02 09:48:54;;;;;;;1.57;1.10;;;24.20;1.00;;;;;;5026721;28;20199;-78
2022/09/02 09:51:20;;;;;;;2.20;1.20;;;24.30;1.00;;;;;;5024108;28;20990;-78
2022/09/02 09:53:46;;;;;;;1.73;1.13;;;24.40;1.00;;;;;;5046567;28;20463;-78
2022/09/02 09:56:14;;;;;;;3.57;1.40;;;24.50;1.00;;;;;;5042104;28;20583;-78
2022/09/02 09:58:40;;;;;;;2.40;1.07;;;24.70;1.00;;;;;;5018938;28;20472;-79
2022/09/02 10:01:27;;;;;;;2.03;1.20;;;24.80;1.00;;;;;;5043095;28;20416;-78
2022/09/02 10:03:59;;;;;;;7.53;1.40;;;24.90;1.00;;;;;;5026305;28;20175;-77
2022/09/02 10:06:31;;;;;;;2.63;1.20;;;25.00;1.00;;;;;;5027610;28;20430;-77
2022/09/02 10:09:00;;;;;;;0.90;0.90;;;25.20;1.00;;;;;;5017263;28;20453;-77
2022/09/02 10:11:29;;;;;;;3.37;1.37;;;25.30;1.00;;;;;;5022234;28;20466;-77
2022/09/02 10:14:10;;;;;;;6.53;1.00;;;25.40;1.00;;;;;;5044822;28;20503;-77
2022/09/02 10:17:09;;;;;;;8.10;1.37;;;25.70;1.00;;;;;;5025880;28;20421;-78
2022/09/02 10:19:45;;;;;;;2.30;1.23;;;26.00;1.00;;;;;;5048840;28;20419;-79
2022/09/02 10:22:31;;;;;;;1.57;1.10;;;26.20;1.00;;;;;;5020967;28;20793;-78
2022/09/02 10:25:02;;;;;;;2.20;0.90;;;26.60;1.00;;;;;;5030546;28;20522;-86
2022/09/02 10:27:28;;;;;;;2.67;1.23;;;26.90;1.00;;;;;;5047574;28;20413;-85
2022/09/02 10:30:03;;;;;;;5.67;1.00;;;27.20;1.00;;;;;;5045994;28;20424;-87
2022/09/02 10:33:01;;;;;;;3.77;1.33;;;27.40;1.00;;;;;;5034993;28;20171;-79
2022/09/02 10:35:44;;;;;;;2.30;1.10;;;27.40;1.00;;;;;;4969421;28;20540;-79
2022/09/02 10:41:51;;;;;;;4.10;1.23;;;27.10;1.00;;;;;;4971569;28;20410;-84
2022/09/02 10:44:53;;;;;;;1.80;1.17;;;27.00;1.00;;;;;;4982600;28;20415;-85
2022/09/02 10:47:51;;;;;;;1.73;1.30;;;27.00;1.00;;;;;;4976249;28;20415;-75
2022/09/02 10:50:25;;;;;;;1.87;1.30;;;26.80;1.00;;;;;;4897041;29;20441;-74
2022/09/02 10:53:22;;;;;;;3.03;1.10;;;26.60;1.00;;;;;;4892781;29;20484;-75
2022/09/02 10:56:02;;;;;;;1.30;1.07;;;26.60;1.00;;;;;;4892609;29;20468;-73
2022/09/02 10:58:52;;;;;;;1.83;1.20;;;26.40;1.00;;;;;;4887686;29;20423;-73
2022/09/02 11:01:42;;;;;;;2.57;1.10;;;26.40;1.00;;;;;;4898576;29;20430;-73
2022/09/02 11:04:38;;;;;;;8.73;1.30;;;26.20;1.00;;;;;;4899540;29;20436;-78
2022/09/02 11:07:27;;;;;;;1.50;1.23;;;26.00;1.00;;;;;;4899626;29;20424;-78
2022/09/02 11:09:59;;;;;;;2.03;1.20;;;25.80;1.00;;;;;;4899355;29;20428;-78
2022/09/02 11:13:08;;;;;;;2.50;1.37;;;25.60;1.00;;;;;;4929148;28;20460;-78
2022/09/02 11:15:52;;;;;;;3.43;1.60;;;25.40;1.00;;;;;;4955294;29;20422;-78
2022/09/02 11:18:45;;;;;;;6.20;1.17;;;25.40;1.00;;;;;;4955368;29;20537;-78
2022/09/02 11:21:29;;;;;;;3.90;1.17;;;25.30;1.00;;;;;;4955268;29;20412;-78
2022/09/02 11:23:55;;;;;;;2.83;1.10;;;25.20;1.00;;;;;;4943227;29;20418;-78
2022/09/02 11:26:37;;;;;;;1.20;1.10;;;25.30;1.00;;;;;;4972754;28;20774;-78
2022/09/02 11:29:24;;;;;;;1.37;1.00;;;25.40;1.00;;;;;;5035239;28;20513;-78
2022/09/02 11:32:04;;;;;;;1.37;1.27;;;25.40;1.00;;;;;;5035639;28;20545;-74
2022/09/02 11:34:35;;;;;;;4.53;1.37;;;25.40;1.00;;;;;;5035162;28;20956;-73
2022/09/02 11:37:07;;;;;;;1.40;1.00;;;25.30;1.00;;;;;;5034716;28;20400;-73
2022/09/02 11:39:45;;;;;;;2.10;1.00;;;25.40;1.00;;;;;;5049166;28;20417;-73
2022/09/02 11:42:25;;;;;;;2.03;1.20;;;25.50;1.00;;;;;;5054304;28;20411;-73
2022/09/02 11:45:16;;;;;;;1.43;1.13;;;25.50;1.00;;;;;;5053610;28;20413;-73
2022/09/02 11:48:08;;;;;;;2.63;1.10;;;25.30;1.00;;;;;;5048102;28;20414;-78
2022/09/02 11:50:52;;;;;;;3.57;1.37;;;25.20;1.00;;;;;;5054454;28;20435;-78
2022/09/02 11:53:26;;;;;;;9.40;1.43;;;25.50;1.00;;;;;;5031229;28;20496;-78
2022/09/02 11:56:02;;;;;;;5.13;1.63;;;25.80;1.00;;;;;;5053556;28;20415;-78
2022/09/02 11:58:32;;;;;;;1.67;1.10;;;26.10;1.00;;;;;;5054140;28;20407;-78
2022/09/02 12:01:34;;;;;;;2.30;1.17;;;26.30;1.00;;;;;;5053745;28;20768;-78
2022/09/02 12:03:59;;;;;;;2.70;1.00;;;26.50;1.00;;;;;;4996859;28;20546;-73
2022/09/02 12:06:26;;;;;;;3.50;1.27;;;26.50;1.00;;;;;;4993158;28;20929;-73
2022/09/02 12:08:52;;;;;;;1.90;1.20;;;26.50;1.00;;;;;;4992441;28;20200;-73
2022/09/02 12:11:40;;;;;;;1.97;0.90;;;26.50;1.00;;;;;;4992793;28;20438;-73
2022/09/02 12:14:30;;;;;;;1.80;1.00;;;26.50;1.00;;;;;;4988794;28;20482;-74
2022/09/02 12:17:07;;;;;;;1.33;1.23;;;26.70;1.00;;;;;;4990363;28;20466;-73
2022/09/02 12:19:44;;;;;;;5.90;1.40;;;26.60;1.00;;;;;;5005770;28;20417;-78
2022/09/02 12:22:16;;;;;;;2.13;1.20;;;26.20;1.00;;;;;;4989898;28;20425;-80
2022/09/02 12:24:51;;;;;;;3.63;1.10;;;26.20;1.00;;;;;;4996419;28;20495;-80
2022/09/02 12:31:04;;;;;;;1.20;0.90;;;26.50;1.00;;;;;;4992756;28;20494;-79
2022/09/02 12:33:39;;;;;;;1.30;1.00;;;26.60;1.00;;;;;;4994404;28;20471;-77
2022/09/02 12:39:26;;;;;;;2.97;0.93;;;27.00;1.00;;;;;;4998234;28;20523;-79
2022/09/02 12:45:24;;;;;;;5.20;1.37;;;27.30;1.00;;;;;;5031635;28;20422;-79
2022/09/02 12:48:08;;;;;;;2.33;1.07;;;27.40;1.00;;;;;;5038255;28;20424;-73
2022/09/02 12:50:44;;;;;;;1.40;0.90;;;27.40;1.00;;;;;;5033003;28;20437;-74
2022/09/02 12:53:34;;;;;;;0.83;0.83;;;27.30;1.00;;;;;;5041697;28;20478;-74
2022/09/02 12:56:15;;;;;;;1.83;1.07;;;27.30;1.00;;;;;;5036676;28;20410;-74
2022/09/02 12:58:46;;;;;;;2.10;1.00;;;27.50;1.00;;;;;;5036760;28;20436;-74
2022/09/02 13:01:19;;;;;;;3.43;1.53;;;27.70;1.00;;;;;;5033545;28;20439;-74
2022/09/02 13:04:22;;;;;;;3.60;1.17;;;27.70;1.00;;;;;;5039539;28;20427;-75
2022/09/02 13:07:25;;;;;;;2.90;1.00;;;27.80;1.00;;;;;;5040476;28;20561;-75
2022/09/02 13:10:25;;;;;;;1.23;0.90;;;27.90;1.00;;;;;;5035575;28;20490;-74
2022/09/02 13:13:02;;;;;;;0.80;0.80;;;28.00;1.00;;;;;;5018569;28;20542;-73
2022/09/02 13:16:05;;;;;;;1.03;1.00;;;28.10;1.00;;;;;;5036881;28;20428;-73
2022/09/02 13:18:49;;;;;;;1.43;1.00;;;28.10;1.00;;;;;;5029455;28;20424;-73
2022/09/02 13:21:55;;;;;;;2.00;1.13;;;28.00;1.00;;;;;;5034352;28;20776;-84
2022/09/02 13:24:48;;;;;;;1.57;1.00;;;28.10;1.00;;;;;;5023884;28;20448;-84
2022/09/02 13:27:40;;;;;;;1.43;1.00;;;28.20;1.00;;;;;;5025943;28;20486;-78
2022/09/02 13:33:27;;;;;;;0.90;0.70;;;28.20;1.00;;;;;;5038940;28;20881;-86
2022/09/02 13:42:38;;;;;;;5.90;1.30;;;28.30;1.00;;;;;;5040729;28;20411;-87
2022/09/02 13:45:22;;;;;;;2.83;0.80;;;28.30;1.00;;;;;;5038874;28;20581;-82
2022/09/02 13:54:30;;;;;;;6.43;1.10;;;28.20;1.00;;;;;;5037494;28;20564;-82
2022/09/02 14:03:50;;;;;;;8.50;1.07;;;28.20;1.00;;;;;;5047140;28;20390;-77
2022/09/02 14:06:35;;;;;;;0.80;0.80;;;28.30;1.00;;;;;;5041796;28;20466;-76
2022/09/02 14:09:06;;;;;;;2.57;0.90;;;28.40;1.00;;;;;;5047340;28;20485;-76
2022/09/02 14:11:42;;;;;;;1.77;0.80;;;28.40;1.00;;;;;;5032852;28;20418;-76
2022/09/02 14:14:17;;;;;;;2.57;1.00;;;28.30;1.00;;;;;;5022310;28;20966;-76
2022/09/02 14:16:44;;;;;;;3.70;1.10;;;28.40;1.00;;;;;;5040372;28;20752;-76
2022/09/02 14:26:49;;;;;;;1.23;1.00;;;28.50;1.00;;;;;;5033765;28;20967;-78
2022/09/02 14:30:07;;;;;;;3.97;0.80;;;28.50;1.00;;;;;;5041240;28;20979;-80
2022/09/02 14:33:13;;;;;;;2.27;1.10;;;28.50;1.00;;;;;;5041891;28;20404;-79
2022/09/02 14:39:43;;;;;;;2.23;1.10;;;28.50;1.00;;;;;;5035948;28;20425;-79
2022/09/02 14:46:05;;;;;;;1.20;1.10;;;28.40;1.00;;;;;;5043699;28;20465;-80
2022/09/02 14:48:37;;;;;;;11.33;1.00;;;28.20;1.00;;;;;;5031253;28;20933;-80
2022/09/02 14:58:01;;;;;;;1.80;0.93;;;28.60;1.00;;;;;;5020798;28;20910;-82
2022/09/02 15:03:49;;;;;;;2.40;1.00;;;30.80;1.00;;;;;;5032622;28;20559;-82
2022/09/02 15:13:43;;;;;;;0.70;0.70;;;33.90;1.00;;;;;;5044591;28;20460;-82
2022/09/02 15:16:20;;;;;;;3.23;0.83;;;34.90;1.00;;;;;;5045360;28;20449;-82
2022/09/02 15:25:44;;;;;;;2.60;0.80;;;36.70;1.00;;;;;;5050984;28;20464;-85
2022/09/02 15:31:31;;;;;;;3.40;0.80;;;37.10;1.00;;;;;;5040812;28;20460;-83
2022/09/02 15:34:02;;;;;;;2.40;0.80;;;37.90;1.00;;;;;;5051606;28;20458;-85
2022/09/02 15:40:09;;;;;;;2.50;0.83;;;37.90;1.00;;;;;;5035768;28;20422;-85
2022/09/02 15:46:33;;;;;;;1.60;0.63;;;39.40;1.00;;;;;;5032283;28;20417;-84
2022/09/02 15:49:10;;;;;;;6.17;0.90;;;40.00;1.00;;;;;;5046266;28;20405;-85
2022/09/02 15:54:58;;;;;;;1.57;0.80;;;40.60;1.00;;;;;;5030540;28;20524;-81
2022/09/02 15:57:24;;;;;;;1.30;0.80;;;40.60;1.00;;;;;;5047578;28;20427;-81
2022/09/02 16:00:33;;;;;;;0.73;0.73;;;40.90;1.00;;;;;;5034885;28;20172;-80
2022/09/02 16:06:21;;;;;;;1.33;0.67;;;40.90;1.00;;;;;;5016106;28;20372;-80
2022/09/02 16:15:31;;;;;;;2.20;0.80;;;41.40;1.00;;;;;;5035283;28;20950;-81
2022/09/02 16:18:37;;;;;;;10.70;1.50;;;41.00;1.00;;;;;;5035132;28;20415;-81
2022/09/02 16:27:54;;;;;;;1.10;0.80;;;41.70;1.00;;;;;;5015073;28;20863;-81
2022/09/02 16:30:20;;;;;;;1.20;0.70;;;41.60;1.00;;;;;;5040395;28;20418;-78
2022/09/02 16:46:14;;;;;;;6.13;0.87;;;41.50;1.00;;;;;;5044619;28;20450;-82
2022/09/02 16:52:01;;;;;;;1.03;0.60;;;39.20;1.00;;;;;;5034308;28;20560;-78
2022/09/02 16:54:44;;;;;;;5.90;0.80;;;37.00;1.00;;;;;;5034099;28;20458;-78
2022/09/02 17:03:57;;;;;;;3.20;0.77;;;32.40;1.00;;;;;;5014794;28;20355;-80
2022/09/02 17:06:32;;;;;;;1.10;1.00;;;31.10;1.00;;;;;;5032862;28;20424;-79
2022/09/02 17:12:20;;;;;;;0.93;0.80;;;29.50;1.00;;;;;;5014554;28;20890;-77
2022/09/02 17:18:57;;;;;;;2.03;1.00;;;28.00;1.00;;;;;;5034100;28;20434;-80
2022/09/02 17:24:45;;;;;;;5.03;1.00;;;26.80;1.00;;;;;;5050384;28;20410;-81
2022/09/02 17:30:32;;;;;;;5.93;0.93;;;26.00;1.00;;;;;;5040399;28;20252;-81
2022/09/02 17:39:41;;;;;;;1.30;1.20;;;24.90;1.00;;;;;;5023665;28;20384;-78
2022/09/02 17:46:08;;;;;;;1.10;1.00;;;24.40;1.00;;;;;;5033196;28;20174;-79
2022/09/02 17:51:58;;;;;;;2.83;1.30;;;23.90;1.00;;;;;;5047535;28;20392;-81
2022/09/02 18:01:23;;;;;;;1.17;1.07;;;23.20;1.00;;;;;;5013693;28;20451;-79
2022/09/02 18:04:24;;;;;;;1.00;0.90;;;22.90;1.00;;;;;;5013792;28;20908;-79
2022/09/02 18:06:55;;;;;;;43.57;2.00;;;22.70;1.00;;;;;;5031345;28;20438;-79
2022/09/02 18:12:43;;;;;;;1.30;1.20;;;22.30;1.00;;;;;;5027969;28;20834;-78
2022/09/02 18:15:17;;;;;;;1.33;1.03;;;22.10;1.00;;;;;;5036397;28;20454;-79
2022/09/02 18:21:33;;;;;;;2.90;1.20;;;21.80;1.00;;;;;;5046521;28;20908;-80
2022/09/02 18:24:40;;;;;;;6.70;1.37;;;21.60;1.00;;;;;;5026930;28;20893;-74
2022/09/02 18:27:19;;;;;;;13.30;1.20;;;21.40;1.00;;;;;;5031554;28;20886;-74
2022/09/02 18:30:10;;;;;;;1.77;1.20;;;21.20;1.00;;;;;;5020330;28;20471;-73
2022/09/02 18:33:08;;;;;;;4.30;1.40;;;21.10;1.00;;;;;;5029057;28;20425;-72
2022/09/02 18:35:59;;;;;;;5.27;1.60;;;20.90;1.00;;;;;;5031333;28;20442;-72
2022/09/02 18:38:51;;;;;;;4.63;2.00;;;20.70;1.00;;;;;;5025072;28;20542;-72
2022/09/02 18:41:48;;;;;;;4.10;1.83;;;20.60;1.00;;;;;;5026571;28;20432;-72
2022/09/02 18:44:35;;;;;;;2.20;1.37;;;20.40;1.00;;;;;;5032288;28;20873;-73
2022/09/02 18:47:16;;;;;;;2.30;1.47;;;20.30;1.00;;;;;;5035857;28;20426;-73
2022/09/02 18:49:44;;;;;;;6.00;1.20;;;20.20;1.00;;;;;;5039663;28;20428;-73
2022/09/02 18:52:10;;;;;;;3.40;1.40;;;20.10;1.00;;;;;;5031047;28;20457;-74
2022/09/02 18:54:47;;;;;;;13.00;1.40;;;20.00;1.00;;;;;;5037090;28;20455;-73
2022/09/02 18:57:13;;;;;;;11.40;1.50;;;19.90;1.00;;;;;;5037656;28;20412;-73